sensor_id;sensor_type;location;lat;lon;timestamp;P1;durP1;ratioP1;P2;durP2;ratioP2
6093;SDS011;19964;42.060;24.700;2023-10-09T06:30:22;10.67;;;5.30;;
6093;SDS011;19964;42.060;24.700;2023-10-09T06:32:55;10.67;;;5.10;;
6093;SDS011;19964;42.060;24.700;2023-10-09T06:35:33;15.27;;;5.13;;
6093;SDS011;19964;42.060;24.700;2023-10-09T06:38:01;9.93;;;4.40;;
6093;SDS011;19964;42.060;24.700;2023-10-09T06:40:47;5.67;;;3.90;;
6093;SDS011;19964;42.060;24.700;2023-10-09T06:43:32;10.93;;;4.47;;
6093;SDS011;19964;42.060;24.700;2023-10-09T06:46:14;9.73;;;4.47;;
6093;SDS011;19964;42.060;24.700;2023-10-09T06:49:00;6.23;;;4.43;;
6093;SDS011;19964;42.060;24.700;2023-10-09T06:51:47;7.80;;;4.60;;
6093;SDS011;19964;42.060;24.700;2023-10-09T06:54:20;10.13;;;4.90;;
6093;SDS011;19964;42.060;24.700;2023-10-09T06:56:50;7.30;;;4.77;;
6093;SDS011;19964;42.060;24.700;2023-10-09T06:59:38;12.53;;;5.00;;
6093;SDS011;19964;42.060;24.700;2023-10-09T07:02:26;12.57;;;5.40;;
6093;SDS011;19964;42.060;24.700;2023-10-09T07:04:54;4.83;;;4.13;;
6093;SDS011;19964;42.060;24.700;2023-10-09T07:07:20;13.60;;;4.87;;
6093;SDS011;19964;42.060;24.700;2023-10-09T07:09:50;11.43;;;4.70;;
6093;SDS011;19964;42.060;24.700;2023-10-09T07:12:35;7.40;;;4.70;;
6093;SDS011;19964;42.060;24.700;2023-10-09T07:15:09;5.30;;;4.10;;
6093;SDS011;19964;42.060;24.700;2023-10-09T07:18:02;9.67;;;4.67;;
6093;SDS011;19964;42.060;24.700;2023-10-09T07:20:45;14.67;;;4.83;;
6093;SDS011;19964;42.060;24.700;2023-10-09T07:23:24;8.40;;;4.67;;
6093;SDS011;19964;42.060;24.700;2023-10-09T07:26:00;9.33;;;4.60;;
6093;SDS011;19964;42.060;24.700;2023-10-09T07:28:43;10.80;;;5.00;;
6093;SDS011;19964;42.060;24.700;2023-10-09T07:31:19;9.37;;;5.20;;
6093;SDS011;19964;42.060;24.700;2023-10-09T07:34:04;6.17;;;4.27;;
6093;SDS011;19964;42.060;24.700;2023-10-09T07:36:54;10.07;;;5.07;;
6093;SDS011;19964;42.060;24.700;2023-10-09T07:39:22;13.20;;;4.80;;
6093;SDS011;19964;42.060;24.700;2023-10-09T07:41:49;7.07;;;4.70;;
6093;SDS011;19964;42.060;24.700;2023-10-09T07:44:28;9.97;;;4.67;;
6093;SDS011;19964;42.060;24.700;2023-10-09T07:47:02;5.83;;;4.43;;
6093;SDS011;19964;42.060;24.700;2023-10-09T07:49:48;5.70;;;4.60;;
6093;SDS011;19964;42.060;24.700;2023-10-09T07:52:18;8.00;;;4.47;;
6093;SDS011;19964;42.060;24.700;2023-10-09T07:54:47;12.80;;;5.03;;
6093;SDS011;19964;42.060;24.700;2023-10-09T07:57:19;12.73;;;4.87;;
6093;SDS011;19964;42.060;24.700;2023-10-09T07:59:51;5.90;;;4.70;;
6093;SDS011;19964;42.060;24.700;2023-10-09T08:02:31;7.93;;;5.10;;
6093;SDS011;19964;42.060;24.700;2023-10-09T08:05:01;7.37;;;4.73;;
6093;SDS011;19964;42.060;24.700;2023-10-09T08:07:33;10.50;;;5.23;;
6093;SDS011;19964;42.060;24.700;2023-10-09T08:10:02;9.73;;;5.03;;
6093;SDS011;19964;42.060;24.700;2023-10-09T08:12:48;9.00;;;4.90;;
6093;SDS011;19964;42.060;24.700;2023-10-09T08:15:46;7.80;;;4.43;;
6093;SDS011;19964;42.060;24.700;2023-10-09T08:18:18;6.67;;;4.67;;
6093;SDS011;19964;42.060;24.700;2023-10-09T08:20:53;6.37;;;4.37;;
6093;SDS011;19964;42.060;24.700;2023-10-09T08:23:35;10.40;;;4.50;;
6093;SDS011;19964;42.060;24.700;2023-10-09T08:26:16;7.17;;;4.60;;
6093;SDS011;19964;42.060;24.700;2023-10-09T08:28:54;6.63;;;4.20;;
6093;SDS011;19964;42.060;24.700;2023-10-09T08:31:41;11.47;;;4.33;;
6093;SDS011;19964;42.060;24.700;2023-10-09T08:34:22;9.40;;;4.30;;
6093;SDS011;19964;42.060;24.700;2023-10-09T08:36:51;6.83;;;4.33;;
6093;SDS011;19964;42.060;24.700;2023-10-09T08:39:20;7.57;;;4.50;;
6093;SDS011;19964;42.060;24.700;2023-10-09T08:41:58;9.13;;;4.53;;
6093;SDS011;19964;42.060;24.700;2023-10-09T08:44:26;14.67;;;3.87;;
6093;SDS011;19964;42.060;24.700;2023-10-09T08:46:57;12.60;;;4.60;;
6093;SDS011;19964;42.060;24.700;2023-10-09T08:49:25;8.47;;;4.37;;
6093;SDS011;19964;42.060;24.700;2023-10-09T08:51:53;13.77;;;4.10;;
6093;SDS011;19964;42.060;24.700;2023-10-09T08:54:21;9.60;;;4.50;;
6093;SDS011;19964;42.060;24.700;2023-10-09T08:56:48;8.73;;;4.30;;
6093;SDS011;19964;42.060;24.700;2023-10-09T08:59:19;6.90;;;4.10;;
6093;SDS011;19964;42.060;24.700;2023-10-09T09:01:47;10.97;;;4.67;;
6093;SDS011;19964;42.060;24.700;2023-10-09T09:04:38;10.63;;;4.50;;
6093;SDS011;19964;42.060;24.700;2023-10-09T09:07:22;11.53;;;4.70;;
6093;SDS011;19964;42.060;24.700;2023-10-09T09:09:55;15.63;;;4.60;;
6093;SDS011;19964;42.060;24.700;2023-10-09T09:12:26;10.33;;;5.00;;
6093;SDS011;19964;42.060;24.700;2023-10-09T09:14:56;7.97;;;4.40;;
6093;SDS011;19964;42.060;24.700;2023-10-09T09:17:29;8.23;;;4.40;;
6093;SDS011;19964;42.060;24.700;2023-10-09T09:20:00;10.90;;;4.80;;
6093;SDS011;19964;42.060;24.700;2023-10-09T09:22:51;8.70;;;4.60;;
6093;SDS011;19964;42.060;24.700;2023-10-09T09:25:22;11.47;;;4.57;;
6093;SDS011;19964;42.060;24.700;2023-10-09T09:27:51;11.20;;;4.33;;
6093;SDS011;19964;42.060;24.700;2023-10-09T09:30:23;7.60;;;4.60;;
6093;SDS011;19964;42.060;24.700;2023-10-09T09:32:50;9.63;;;4.30;;
6093;SDS011;19964;42.060;24.700;2023-10-09T09:35:37;10.03;;;4.50;;
6093;SDS011;19964;42.060;24.700;2023-10-09T09:38:06;7.97;;;4.10;;
6093;SDS011;19964;42.060;24.700;2023-10-09T09:40:40;9.33;;;4.10;;
6093;SDS011;19964;42.060;24.700;2023-10-09T09:43:07;8.63;;;4.23;;
6093;SDS011;19964;42.060;24.700;2023-10-09T09:45:46;15.57;;;5.30;;
6093;SDS011;19964;42.060;24.700;2023-10-09T09:48:17;13.23;;;5.10;;
6093;SDS011;19964;42.060;24.700;2023-10-09T09:50:44;10.00;;;4.50;;
6093;SDS011;19964;42.060;24.700;2023-10-09T09:53:12;10.87;;;4.20;;
6093;SDS011;19964;42.060;24.700;2023-10-09T09:55:45;9.73;;;4.40;;
6093;SDS011;19964;42.060;24.700;2023-10-09T09:58:22;13.43;;;4.40;;
6093;SDS011;19964;42.060;24.700;2023-10-09T10:00:52;11.23;;;4.57;;
6093;SDS011;19964;42.060;24.700;2023-10-09T10:03:22;11.73;;;4.60;;
6093;SDS011;19964;42.060;24.700;2023-10-09T10:05:52;12.07;;;4.60;;
6093;SDS011;19964;42.060;24.700;2023-10-09T10:08:23;10.40;;;4.37;;
6093;SDS011;19964;42.060;24.700;2023-10-09T10:10:59;9.20;;;4.47;;
6093;SDS011;19964;42.060;24.700;2023-10-09T10:16:26;17.90;;;4.60;;
6093;SDS011;19964;42.060;24.700;2023-10-09T10:19:00;7.70;;;4.73;;
6093;SDS011;19964;42.060;24.700;2023-10-09T10:21:46;12.30;;;4.43;;
6093;SDS011;19964;42.060;24.700;2023-10-09T10:27:19;7.20;;;4.07;;
6093;SDS011;19964;42.060;24.700;2023-10-09T10:33:02;9.63;;;4.07;;
6093;SDS011;19964;42.060;24.700;2023-10-09T10:35:41;8.37;;;3.90;;
6093;SDS011;19964;42.060;24.700;2023-10-09T10:38:23;10.53;;;4.27;;
6093;SDS011;19964;42.060;24.700;2023-10-09T10:41:14;8.90;;;4.40;;
6093;SDS011;19964;42.060;24.700;2023-10-09T10:43:48;10.47;;;4.30;;
6093;SDS011;19964;42.060;24.700;2023-10-09T10:46:24;9.87;;;4.27;;
6093;SDS011;19964;42.060;24.700;2023-10-09T10:48:56;7.93;;;3.80;;
6093;SDS011;19964;42.060;24.700;2023-10-09T10:51:27;14.03;;;4.20;;
6093;SDS011;19964;42.060;24.700;2023-10-09T10:54:03;10.13;;;3.57;;
6093;SDS011;19964;42.060;24.700;2023-10-09T10:56:44;14.53;;;3.27;;
6093;SDS011;19964;42.060;24.700;2023-10-09T16:54:23;6.07;;;3.27;;
6093;SDS011;19964;42.060;24.700;2023-10-09T16:56:51;9.97;;;3.40;;
6093;SDS011;19964;42.060;24.700;2023-10-09T16:59:20;7.23;;;3.40;;
6093;SDS011;19964;42.060;24.700;2023-10-09T17:01:48;7.23;;;3.40;;
6093;SDS011;19964;42.060;24.700;2023-10-09T17:04:16;10.37;;;3.90;;
6093;SDS011;19964;42.060;24.700;2023-10-09T17:06:44;13.73;;;3.60;;
6093;SDS011;19964;42.060;24.700;2023-10-09T17:09:13;7.67;;;3.20;;
6093;SDS011;19964;42.060;24.700;2023-10-09T17:11:40;6.70;;;3.50;;
6093;SDS011;19964;42.060;24.700;2023-10-09T17:14:07;6.00;;;3.87;;
6093;SDS011;19964;42.060;24.700;2023-10-09T17:16:37;7.40;;;3.73;;
6093;SDS011;19964;42.060;24.700;2023-10-09T17:19:06;9.37;;;3.30;;
6093;SDS011;19964;42.060;24.700;2023-10-09T17:21:33;6.73;;;3.20;;
6093;SDS011;19964;42.060;24.700;2023-10-09T17:24:03;8.77;;;3.60;;
6093;SDS011;19964;42.060;24.700;2023-10-09T17:26:35;5.23;;;3.67;;
6093;SDS011;19964;42.060;24.700;2023-10-09T17:29:03;5.17;;;3.30;;
6093;SDS011;19964;42.060;24.700;2023-10-09T17:31:30;4.07;;;3.07;;
6093;SDS011;19964;42.060;24.700;2023-10-09T17:33:59;4.23;;;3.17;;
6093;SDS011;19964;42.060;24.700;2023-10-09T17:36:27;3.83;;;3.17;;
6093;SDS011;19964;42.060;24.700;2023-10-09T17:38:54;5.47;;;3.00;;
6093;SDS011;19964;42.060;24.700;2023-10-09T17:41:25;5.30;;;3.03;;
6093;SDS011;19964;42.060;24.700;2023-10-09T17:43:57;6.27;;;3.60;;
6093;SDS011;19964;42.060;24.700;2023-10-09T17:46:24;8.43;;;3.77;;
6093;SDS011;19964;42.060;24.700;2023-10-09T17:48:51;3.63;;;3.30;;
6093;SDS011;19964;42.060;24.700;2023-10-09T17:51:18;6.77;;;3.37;;
6093;SDS011;19964;42.060;24.700;2023-10-09T17:53:45;5.23;;;3.23;;
6093;SDS011;19964;42.060;24.700;2023-10-09T17:56:12;5.30;;;3.73;;
6093;SDS011;19964;42.060;24.700;2023-10-09T17:58:38;8.10;;;3.53;;
6093;SDS011;19964;42.060;24.700;2023-10-09T18:01:13;3.73;;;3.20;;
6093;SDS011;19964;42.060;24.700;2023-10-09T18:03:41;3.63;;;3.33;;
6093;SDS011;19964;42.060;24.700;2023-10-09T18:06:07;6.00;;;3.30;;
6093;SDS011;19964;42.060;24.700;2023-10-09T18:08:37;3.20;;;2.90;;
6093;SDS011;19964;42.060;24.700;2023-10-09T18:11:04;6.10;;;3.43;;
6093;SDS011;19964;42.060;24.700;2023-10-09T18:13:31;4.23;;;2.90;;
6093;SDS011;19964;42.060;24.700;2023-10-09T18:16:01;5.90;;;3.10;;
6093;SDS011;19964;42.060;24.700;2023-10-09T18:18:34;3.00;;;2.80;;
6093;SDS011;19964;42.060;24.700;2023-10-09T18:21:02;3.53;;;3.10;;
6093;SDS011;19964;42.060;24.700;2023-10-09T18:23:32;6.00;;;3.07;;
6093;SDS011;19964;42.060;24.700;2023-10-09T18:25:59;3.70;;;3.40;;
6093;SDS011;19964;42.060;24.700;2023-10-09T18:28:26;3.17;;;2.87;;
6093;SDS011;19964;42.060;24.700;2023-10-09T18:30:53;3.77;;;2.97;;
6093;SDS011;19964;42.060;24.700;2023-10-09T18:33:20;4.20;;;2.93;;
6093;SDS011;19964;42.060;24.700;2023-10-09T18:35:49;5.10;;;3.00;;
6093;SDS011;19964;42.060;24.700;2023-10-09T18:38:16;4.23;;;3.17;;
6093;SDS011;19964;42.060;24.700;2023-10-09T18:40:43;5.17;;;2.90;;
6093;SDS011;19964;42.060;24.700;2023-10-09T18:43:12;4.20;;;3.00;;
6093;SDS011;19964;42.060;24.700;2023-10-09T18:45:39;4.53;;;3.00;;
6093;SDS011;19964;42.060;24.700;2023-10-09T18:48:06;3.30;;;3.00;;
6093;SDS011;19964;42.060;24.700;2023-10-09T18:50:36;7.83;;;3.03;;
6093;SDS011;19964;42.060;24.700;2023-10-09T18:53:08;5.57;;;5.00;;
6093;SDS011;19964;42.060;24.700;2023-10-09T18:55:37;3.57;;;2.93;;
6093;SDS011;19964;42.060;24.700;2023-10-09T18:58:04;3.13;;;2.87;;
6093;SDS011;19964;42.060;24.700;2023-10-09T19:00:34;3.07;;;2.87;;
6093;SDS011;19964;42.060;24.700;2023-10-09T19:03:06;4.23;;;3.00;;
6093;SDS011;19964;42.060;24.700;2023-10-09T19:05:39;3.73;;;3.00;;
6093;SDS011;19964;42.060;24.700;2023-10-09T19:08:08;5.20;;;3.03;;
6093;SDS011;19964;42.060;24.700;2023-10-09T19:10:35;3.63;;;2.90;;
6093;SDS011;19964;42.060;24.700;2023-10-09T19:13:02;5.43;;;3.37;;
6093;SDS011;19964;42.060;24.700;2023-10-09T19:15:32;6.70;;;3.13;;
6093;SDS011;19964;42.060;24.700;2023-10-09T19:17:59;3.60;;;3.37;;
6093;SDS011;19964;42.060;24.700;2023-10-09T19:20:26;5.60;;;2.83;;
6093;SDS011;19964;42.060;24.700;2023-10-09T19:22:54;3.43;;;2.73;;
6093;SDS011;19964;42.060;24.700;2023-10-09T19:25:22;4.37;;;2.83;;
6093;SDS011;19964;42.060;24.700;2023-10-09T19:27:52;3.90;;;3.03;;
6093;SDS011;19964;42.060;24.700;2023-10-09T19:30:20;3.93;;;2.80;;
6093;SDS011;19964;42.060;24.700;2023-10-09T19:32:47;3.93;;;2.70;;
6093;SDS011;19964;42.060;24.700;2023-10-09T19:35:14;6.63;;;2.80;;
6093;SDS011;19964;42.060;24.700;2023-10-09T19:37:41;5.27;;;2.90;;
6093;SDS011;19964;42.060;24.700;2023-10-09T19:40:09;2.63;;;2.53;;
6093;SDS011;19964;42.060;24.700;2023-10-09T19:42:38;4.43;;;2.90;;
6093;SDS011;19964;42.060;24.700;2023-10-09T19:45:06;5.10;;;2.93;;
6093;SDS011;19964;42.060;24.700;2023-10-09T19:47:35;6.00;;;2.80;;
6093;SDS011;19964;42.060;24.700;2023-10-09T19:50:05;3.63;;;3.13;;
6093;SDS011;19964;42.060;24.700;2023-10-09T19:52:33;9.30;;;3.07;;
6093;SDS011;19964;42.060;24.700;2023-10-09T19:55:00;3.53;;;3.00;;
6093;SDS011;19964;42.060;24.700;2023-10-09T19:57:28;4.37;;;2.70;;
6093;SDS011;19964;42.060;24.700;2023-10-09T19:59:57;4.03;;;2.70;;
6093;SDS011;19964;42.060;24.700;2023-10-09T20:02:24;4.60;;;3.20;;
6093;SDS011;19964;42.060;24.700;2023-10-09T20:04:51;3.67;;;2.87;;
6093;SDS011;19964;42.060;24.700;2023-10-09T20:07:18;6.27;;;3.53;;
6093;SDS011;19964;42.060;24.700;2023-10-09T20:09:45;4.20;;;2.97;;
6093;SDS011;19964;42.060;24.700;2023-10-09T20:12:11;4.07;;;3.27;;
6093;SDS011;19964;42.060;24.700;2023-10-09T20:14:39;3.57;;;2.97;;
6093;SDS011;19964;42.060;24.700;2023-10-09T20:17:09;5.63;;;2.97;;
6093;SDS011;19964;42.060;24.700;2023-10-09T20:19:37;3.13;;;2.83;;
6093;SDS011;19964;42.060;24.700;2023-10-09T20:22:07;4.17;;;3.07;;
6093;SDS011;19964;42.060;24.700;2023-10-09T20:24:35;5.40;;;2.87;;
6093;SDS011;19964;42.060;24.700;2023-10-09T20:27:02;5.83;;;2.90;;
6093;SDS011;19964;42.060;24.700;2023-10-09T20:29:32;3.73;;;2.80;;
6093;SDS011;19964;42.060;24.700;2023-10-09T20:32:00;2.97;;;2.77;;
6093;SDS011;19964;42.060;24.700;2023-10-09T20:34:28;6.07;;;3.50;;
6093;SDS011;19964;42.060;24.700;2023-10-09T20:36:56;7.10;;;2.70;;
6093;SDS011;19964;42.060;24.700;2023-10-09T20:39:23;5.87;;;3.07;;
6093;SDS011;19964;42.060;24.700;2023-10-09T20:41:51;7.73;;;2.83;;
6093;SDS011;19964;42.060;24.700;2023-10-09T20:44:18;4.60;;;2.90;;
6093;SDS011;19964;42.060;24.700;2023-10-09T20:46:45;3.80;;;2.60;;
6093;SDS011;19964;42.060;24.700;2023-10-09T20:49:13;6.03;;;3.03;;
6093;SDS011;19964;42.060;24.700;2023-10-09T20:51:42;2.73;;;2.53;;
6093;SDS011;19964;42.060;24.700;2023-10-09T20:54:09;3.00;;;2.80;;
6093;SDS011;19964;42.060;24.700;2023-10-09T20:56:36;4.03;;;2.60;;
6093;SDS011;19964;42.060;24.700;2023-10-09T20:59:03;4.43;;;2.83;;
6093;SDS011;19964;42.060;24.700;2023-10-09T21:01:31;3.57;;;2.90;;
6093;SDS011;19964;42.060;24.700;2023-10-09T21:03:58;5.63;;;2.80;;
6093;SDS011;19964;42.060;24.700;2023-10-09T21:06:25;3.23;;;2.97;;
6093;SDS011;19964;42.060;24.700;2023-10-09T21:08:53;3.10;;;2.80;;
6093;SDS011;19964;42.060;24.700;2023-10-09T21:11:20;4.03;;;2.80;;
6093;SDS011;19964;42.060;24.700;2023-10-09T21:13:47;3.07;;;2.77;;
6093;SDS011;19964;42.060;24.700;2023-10-09T21:16:14;4.70;;;2.80;;
6093;SDS011;19964;42.060;24.700;2023-10-09T21:18:42;7.47;;;2.80;;
6093;SDS011;19964;42.060;24.700;2023-10-09T21:21:09;5.23;;;2.90;;
6093;SDS011;19964;42.060;24.700;2023-10-09T21:23:37;2.93;;;2.63;;
6093;SDS011;19964;42.060;24.700;2023-10-09T21:26:08;5.60;;;2.63;;
6093;SDS011;19964;42.060;24.700;2023-10-09T21:28:42;3.27;;;2.97;;
6093;SDS011;19964;42.060;24.700;2023-10-09T21:31:11;3.20;;;2.90;;
6093;SDS011;19964;42.060;24.700;2023-10-09T21:33:41;3.77;;;2.90;;
6093;SDS011;19964;42.060;24.700;2023-10-09T21:36:08;2.90;;;2.70;;
6093;SDS011;19964;42.060;24.700;2023-10-09T21:38:35;5.23;;;3.03;;
6093;SDS011;19964;42.060;24.700;2023-10-09T21:41:09;4.63;;;3.10;;
6093;SDS011;19964;42.060;24.700;2023-10-09T21:43:38;3.00;;;2.80;;
6093;SDS011;19964;42.060;24.700;2023-10-09T21:46:06;3.00;;;2.70;;
6093;SDS011;19964;42.060;24.700;2023-10-09T21:48:35;8.73;;;3.00;;
6093;SDS011;19964;42.060;24.700;2023-10-09T21:51:02;5.23;;;2.97;;
6093;SDS011;19964;42.060;24.700;2023-10-09T21:53:31;4.83;;;2.83;;
6093;SDS011;19964;42.060;24.700;2023-10-09T21:56:01;6.17;;;2.67;;
6093;SDS011;19964;42.060;24.700;2023-10-09T21:58:31;5.90;;;2.77;;
6093;SDS011;19964;42.060;24.700;2023-10-09T22:00:58;3.37;;;2.90;;
6093;SDS011;19964;42.060;24.700;2023-10-09T22:03:28;4.87;;;3.13;;
6093;SDS011;19964;42.060;24.700;2023-10-09T22:05:55;3.23;;;2.93;;
6093;SDS011;19964;42.060;24.700;2023-10-09T22:08:23;4.07;;;3.23;;
6093;SDS011;19964;42.060;24.700;2023-10-09T22:10:50;3.87;;;2.90;;
6093;SDS011;19964;42.060;24.700;2023-10-09T22:13:18;3.60;;;2.87;;
6093;SDS011;19964;42.060;24.700;2023-10-09T22:15:47;4.67;;;3.10;;
6093;SDS011;19964;42.060;24.700;2023-10-09T22:18:14;6.27;;;3.00;;
6093;SDS011;19964;42.060;24.700;2023-10-09T22:20:46;5.77;;;3.47;;
6093;SDS011;19964;42.060;24.700;2023-10-09T22:23:13;3.97;;;3.27;;
6093;SDS011;19964;42.060;24.700;2023-10-09T22:25:43;8.47;;;3.30;;
6093;SDS011;19964;42.060;24.700;2023-10-09T22:28:21;4.13;;;3.00;;
6093;SDS011;19964;42.060;24.700;2023-10-09T22:30:51;7.77;;;3.20;;
6093;SDS011;19964;42.060;24.700;2023-10-09T22:33:20;4.47;;;3.07;;
6093;SDS011;19964;42.060;24.700;2023-10-09T22:35:50;5.97;;;3.20;;
6093;SDS011;19964;42.060;24.700;2023-10-09T22:38:18;4.77;;;3.10;;
6093;SDS011;19964;42.060;24.700;2023-10-09T22:40:47;5.07;;;3.40;;
6093;SDS011;19964;42.060;24.700;2023-10-09T22:43:16;4.93;;;3.10;;
6093;SDS011;19964;42.060;24.700;2023-10-09T22:45:45;4.60;;;3.10;;
6093;SDS011;19964;42.060;24.700;2023-10-09T22:48:18;4.27;;;3.20;;
6093;SDS011;19964;42.060;24.700;2023-10-09T22:50:52;3.77;;;3.20;;
6093;SDS011;19964;42.060;24.700;2023-10-09T22:53:34;4.50;;;3.47;;
6093;SDS011;19964;42.060;24.700;2023-10-09T22:56:04;3.40;;;3.10;;
6093;SDS011;19964;42.060;24.700;2023-10-09T22:58:34;6.87;;;3.47;;
6093;SDS011;19964;42.060;24.700;2023-10-09T23:01:04;5.70;;;3.10;;
6093;SDS011;19964;42.060;24.700;2023-10-09T23:03:39;3.53;;;3.23;;
6093;SDS011;19964;42.060;24.700;2023-10-09T23:06:08;4.50;;;3.70;;
6093;SDS011;19964;42.060;24.700;2023-10-09T23:08:36;3.60;;;3.03;;
6093;SDS011;19964;42.060;24.700;2023-10-09T23:11:08;3.70;;;3.40;;
6093;SDS011;19964;42.060;24.700;2023-10-09T23:13:35;5.97;;;3.30;;
6093;SDS011;19964;42.060;24.700;2023-10-09T23:16:16;4.47;;;3.50;;
6093;SDS011;19964;42.060;24.700;2023-10-09T23:18:51;4.93;;;3.10;;
6093;SDS011;19964;42.060;24.700;2023-10-09T23:21:54;4.50;;;3.33;;
6093;SDS011;19964;42.060;24.700;2023-10-09T23:24:38;5.70;;;3.63;;
6093;SDS011;19964;42.060;24.700;2023-10-09T23:27:14;4.70;;;3.80;;
6093;SDS011;19964;42.060;24.700;2023-10-09T23:30:02;7.03;;;3.90;;
6093;SDS011;19964;42.060;24.700;2023-10-09T23:32:34;6.73;;;3.63;;
6093;SDS011;19964;42.060;24.700;2023-10-09T23:35:03;9.67;;;3.47;;
6093;SDS011;19964;42.060;24.700;2023-10-09T23:37:32;6.67;;;3.80;;
6093;SDS011;19964;42.060;24.700;2023-10-09T23:40:24;8.13;;;3.77;;
6093;SDS011;19964;42.060;24.700;2023-10-09T23:43:05;4.13;;;3.73;;
6093;SDS011;19964;42.060;24.700;2023-10-09T23:45:38;4.70;;;3.50;;
6093;SDS011;19964;42.060;24.700;2023-10-09T23:48:04;5.83;;;3.70;;
6093;SDS011;19964;42.060;24.700;2023-10-09T23:50:38;9.77;;;3.77;;
6093;SDS011;19964;42.060;24.700;2023-10-09T23:53:07;5.07;;;4.13;;
6093;SDS011;19964;42.060;24.700;2023-10-09T23:55:34;4.90;;;3.90;;
6093;SDS011;19964;42.060;24.700;2023-10-09T23:58:07;9.13;;;4.00;;
